Skip Navigation LinksHome page > Weather > Current weather Skip Navigation Links

Current Weather

Bom Jesus Da Lapa, Brazil

For information only: do not use for flight planning or navigation.
Latest weather
Observation time Friday, January 30, 2015 2:15 PM BRST
Local time Friday, January 30, 2015 2:56 PM BRST
Flight conditions Visual Meteorological Conditions
Winds
Wind direction East (90°)
Wind speed 9 mph
Visibility 6.2 mi.
Sky condition
Ceiling unlimited
Cloud layer few clouds 3,000 ft.
Temperature 99°F
Dewpoint 57°F
Altimeter 29.88 in.Hg
Derived measurements
Relative humidity 26%
Heat index 99°F
Density altitude 4195 ft.
Remarks
Special weather observation.
METAR SPBZ43 KWBC 301616 SPECI SBLP 301615Z 09008KT 9999 FEW030 37/14 Q1012

Settings

Location code

InnerDrive.Weather 4.0.5505.0 Release CLR 4.0.30319.34014
Copyright ©2015 Inner Drive Technology. All rights reserved. Portions Copyright ©1986-2015 David Braverman.

Find weather

Site navigation


Skip Navigation Links

Place info

Page info

PayPal - The safer, easier way to pay online!

Return home.

Copyright ©2015 Inner Drive Technology. Purveyors of fine, hand-crafted computer software. Page printed 2015-01-30T16:56:56 UTC.